This is the latest recevied weather packets stored in our database for station/object JF2ZGN-13. If no packets are shown the sender has not sent any weather packets the latest 10 day(s).
| Time | Temp. | Humidity | Pressure | Rain* | Wind** | Luminosity | Snow |
|---|---|---|---|---|---|---|---|
| 1778239823 | 12.22° C | 73% | 898 hPa | 0.25 mm | - | - | - |
| 1778239223 | 12.22° C | 71% | 898.1 hPa | 0.25 mm | - | - | - |
| 1778238622 | 12.78° C | 71% | 898 hPa | 0.25 mm | - | - | - |
| 1778238022 | 12.22° C | 70% | 898 hPa | 0.25 mm | - | - | - |
| 1778237421 | 12.78° C | 69% | 898.1 hPa | 0.25 mm | - | - | - |
| 1778236821 | 12.78° C | 67% | 898 hPa | 0.25 mm | - | - | - |
| 1778236220 | 12.78° C | 66% | 897.9 hPa | 0.25 mm | - | - | - |
| 1778235620 | 12.78° C | 74% | 898.2 hPa | 0.25 mm | - | - | - |
| 1778235020 | 13.33° C | 72% | 898 hPa | 0.25 mm | - | - | - |
| 1778234419 | 13.33° C | 71% | 898 hPa | 0.25 mm | - | - | - |
| 1778233818 | 13.33° C | 73% | 897.9 hPa | 0.25 mm | - | - | - |
| 1778233219 | 12.78° C | 80% | 898.2 hPa | 0.25 mm | - | - | - |
| 1778232618 | 13.33° C | 85% | 898.4 hPa | 0.25 mm | - | - | - |
| 1778232017 | 13.89° C | 89% | 898.6 hPa | 0.25 mm | - | - | - |
| 1778231417 | 13.89° C | 86% | 898.7 hPa | 0.25 mm | - | - | - |
| 1778230817 | 13.89° C | 87% | 898.8 hPa | 0.25 mm | - | - | - |
| 1778230216 | 14.44° C | 82% | 898.6 hPa | 0.25 mm | - | - | - |
| 1778229615 | 13.89° C | 87% | 898.8 hPa | 0.25 mm | - | - | - |
| 1778229016 | 14.44° C | 84% | 898.7 hPa | 0.25 mm | - | - | - |
| 1778228415 | 13.89° C | 87% | 899.1 hPa | 0.25 mm | - | - | - |
| 1778227814 | 13.89° C | 84% | 899 hPa | 0.25 mm | - | - | - |
| 1778227214 | 13.89° C | 85% | 899.1 hPa | 0.25 mm | - | - | - |
| 1778226613 | 13.89° C | 86% | 899.2 hPa | 0.25 mm | - | - | - |
| 1778226013 | 13.89° C | 87% | 899.2 hPa | 0.25 mm | - | - | - |
| 1778225412 | 13.89° C | 90% | 899.6 hPa | 0.25 mm | - | - | - |
* Rain since midnight (hover to see other rain measurements)
** Current wind speed in m/s (hover to see current wind gust speed)